sensor_id;sensor_type;location;lat;lon;timestamp;P1;durP1;ratioP1;P2;durP2;ratioP2
64966;SDS011;51710;38.732;-121.358;2022-09-23T00:02:05;1.08;;;0.40;;
64966;SDS011;51710;38.732;-121.358;2022-09-23T00:04:32;1.55;;;0.50;;
64966;SDS011;51710;38.732;-121.358;2022-09-23T00:06:58;1.55;;;0.40;;
64966;SDS011;51710;38.732;-121.358;2022-09-23T00:09:24;0.30;;;0.30;;
64966;SDS011;51710;38.732;-121.358;2022-09-23T00:11:51;0.63;;;0.40;;
64966;SDS011;51710;38.732;-121.358;2022-09-23T00:14:17;0.52;;;0.47;;
64966;SDS011;51710;38.732;-121.358;2022-09-23T00:16:45;2.22;;;0.57;;
64966;SDS011;51710;38.732;-121.358;2022-09-23T00:19:12;0.45;;;0.30;;
64966;SDS011;51710;38.732;-121.358;2022-09-23T00:21:38;0.52;;;0.35;;
64966;SDS011;51710;38.732;-121.358;2022-09-23T00:24:05;2.83;;;0.50;;
64966;SDS011;51710;38.732;-121.358;2022-09-23T00:26:32;0.70;;;0.40;;
64966;SDS011;51710;38.732;-121.358;2022-09-23T00:28:59;0.30;;;0.30;;
64966;SDS011;51710;38.732;-121.358;2022-09-23T00:31:25;0.47;;;0.43;;
64966;SDS011;51710;38.732;-121.358;2022-09-23T00:33:55;0.40;;;0.40;;
64966;SDS011;51710;38.732;-121.358;2022-09-23T00:36:24;0.32;;;0.32;;
64966;SDS011;51710;38.732;-121.358;2022-09-23T00:38:52;1.92;;;0.52;;
64966;SDS011;51710;38.732;-121.358;2022-09-23T00:41:19;1.42;;;0.50;;
64966;SDS011;51710;38.732;-121.358;2022-09-23T00:46:25;1.38;;;0.43;;
64966;SDS011;51710;38.732;-121.358;2022-09-23T00:49:05;4.13;;;0.40;;
64966;SDS011;51710;38.732;-121.358;2022-09-23T00:51:42;2.08;;;0.88;;
64966;SDS011;51710;38.732;-121.358;2022-09-23T00:54:14;0.50;;;0.40;;
64966;SDS011;51710;38.732;-121.358;2022-09-23T00:56:42;0.30;;;0.30;;
64966;SDS011;51710;38.732;-121.358;2022-09-23T00:59:09;4.03;;;0.60;;
64966;SDS011;51710;38.732;-121.358;2022-09-23T01:01:37;0.35;;;0.30;;
64966;SDS011;51710;38.732;-121.358;2022-09-23T01:04:04;1.05;;;0.50;;
64966;SDS011;51710;38.732;-121.358;2022-09-23T01:06:32;0.60;;;0.45;;
64966;SDS011;51710;38.732;-121.358;2022-09-23T01:08:58;0.57;;;0.50;;
64966;SDS011;51710;38.732;-121.358;2022-09-23T01:25:32;10.32;;;1.50;;
64966;SDS011;51710;38.732;-121.358;2022-09-23T01:31:23;0.90;;;0.30;;
64966;SDS011;51710;38.732;-121.358;2022-09-23T01:34:14;0.73;;;0.40;;
64966;SDS011;51710;38.732;-121.358;2022-09-23T01:36:52;1.25;;;0.60;;
64966;SDS011;51710;38.732;-121.358;2022-09-23T01:39:36;0.63;;;0.40;;
64966;SDS011;51710;38.732;-121.358;2022-09-23T01:42:16;0.85;;;0.50;;
64966;SDS011;51710;38.732;-121.358;2022-09-23T01:45:14;0.40;;;0.40;;
64966;SDS011;51710;38.732;-121.358;2022-09-23T01:50:29;1.20;;;0.60;;
64966;SDS011;51710;38.732;-121.358;2022-09-23T01:56:04;1.75;;;0.50;;
64966;SDS011;51710;38.732;-121.358;2022-09-23T01:58:45;0.82;;;0.50;;
64966;SDS011;51710;38.732;-121.358;2022-09-23T02:01:27;1.90;;;0.40;;
64966;SDS011;51710;38.732;-121.358;2022-09-23T02:04:03;2.88;;;0.40;;
64966;SDS011;51710;38.732;-121.358;2022-09-23T02:06:38;0.95;;;0.40;;
64966;SDS011;51710;38.732;-121.358;2022-09-23T02:09:11;1.98;;;0.32;;
64966;SDS011;51710;38.732;-121.358;2022-09-23T02:11:44;0.40;;;0.40;;
64966;SDS011;51710;38.732;-121.358;2022-09-23T02:16:52;0.52;;;0.43;;
64966;SDS011;51710;38.732;-121.358;2022-09-23T02:19:27;0.80;;;0.50;;
64966;SDS011;51710;38.732;-121.358;2022-09-23T02:24:49;2.03;;;0.50;;
64966;SDS011;51710;38.732;-121.358;2022-09-23T02:30:16;3.35;;;0.95;;
64966;SDS011;51710;38.732;-121.358;2022-09-23T02:33:09;2.55;;;0.50;;
64966;SDS011;51710;38.732;-121.358;2022-09-23T02:36:16;2.42;;;0.40;;
64966;SDS011;51710;38.732;-121.358;2022-09-23T02:38:55;1.08;;;0.50;;
64966;SDS011;51710;38.732;-121.358;2022-09-23T02:41:34;1.80;;;0.60;;
64966;SDS011;51710;38.732;-121.358;2022-09-23T02:44:21;0.68;;;0.50;;
64966;SDS011;51710;38.732;-121.358;2022-09-23T02:46:48;0.68;;;0.40;;
64966;SDS011;51710;38.732;-121.358;2022-09-23T02:49:31;2.28;;;0.50;;
64966;SDS011;51710;38.732;-121.358;2022-09-23T02:52:00;1.77;;;0.57;;
64966;SDS011;51710;38.732;-121.358;2022-09-23T02:54:29;0.63;;;0.40;;
64966;SDS011;51710;38.732;-121.358;2022-09-23T02:57:01;1.35;;;0.60;;
64966;SDS011;51710;38.732;-121.358;2022-09-23T02:59:30;2.00;;;0.52;;
64966;SDS011;51710;38.732;-121.358;2022-09-23T03:18:12;1.83;;;1.15;;
64966;SDS011;51710;38.732;-121.358;2022-09-23T03:20:53;1.10;;;0.70;;
64966;SDS011;51710;38.732;-121.358;2022-09-23T03:23:30;0.68;;;0.45;;
64966;SDS011;51710;38.732;-121.358;2022-09-23T03:28:36;0.68;;;0.50;;
64966;SDS011;51710;38.732;-121.358;2022-09-23T03:31:04;2.13;;;0.82;;
64966;SDS011;51710;38.732;-121.358;2022-09-23T03:33:31;1.45;;;0.70;;
64966;SDS011;51710;38.732;-121.358;2022-09-23T03:36:01;0.85;;;0.50;;
64966;SDS011;51710;38.732;-121.358;2022-09-23T03:38:50;1.30;;;0.57;;
64966;SDS011;51710;38.732;-121.358;2022-09-23T03:41:25;1.00;;;0.60;;
64966;SDS011;51710;38.732;-121.358;2022-09-23T03:43:56;0.68;;;0.60;;
64966;SDS011;51710;38.732;-121.358;2022-09-23T03:46:27;1.20;;;0.80;;
64966;SDS011;51710;38.732;-121.358;2022-09-23T03:48:56;0.95;;;0.50;;
64966;SDS011;51710;38.732;-121.358;2022-09-23T03:51:30;2.22;;;0.90;;
64966;SDS011;51710;38.732;-121.358;2022-09-23T03:53:57;1.67;;;0.70;;
64966;SDS011;51710;38.732;-121.358;2022-09-23T03:56:23;1.65;;;0.73;;
64966;SDS011;51710;38.732;-121.358;2022-09-23T03:58:49;2.17;;;0.73;;
64966;SDS011;51710;38.732;-121.358;2022-09-23T04:01:16;2.75;;;1.45;;
64966;SDS011;51710;38.732;-121.358;2022-09-23T04:03:42;1.75;;;0.70;;
64966;SDS011;51710;38.732;-121.358;2022-09-23T04:06:08;1.88;;;0.52;;
64966;SDS011;51710;38.732;-121.358;2022-09-23T04:08:35;0.75;;;0.70;;
64966;SDS011;51710;38.732;-121.358;2022-09-23T04:11:01;0.98;;;0.65;;
64966;SDS011;51710;38.732;-121.358;2022-09-23T04:13:29;2.45;;;0.82;;
64966;SDS011;51710;38.732;-121.358;2022-09-23T04:15:56;1.85;;;0.90;;
64966;SDS011;51710;38.732;-121.358;2022-09-23T04:18:22;1.48;;;0.75;;
64966;SDS011;51710;38.732;-121.358;2022-09-23T04:20:49;2.20;;;0.60;;
64966;SDS011;51710;38.732;-121.358;2022-09-23T04:23:15;2.38;;;0.85;;
64966;SDS011;51710;38.732;-121.358;2022-09-23T04:25:45;1.65;;;0.70;;
64966;SDS011;51710;38.732;-121.358;2022-09-23T04:28:12;2.03;;;0.70;;
64966;SDS011;51710;38.732;-121.358;2022-09-23T04:30:40;1.77;;;0.88;;
64966;SDS011;51710;38.732;-121.358;2022-09-23T04:33:08;1.88;;;0.70;;
64966;SDS011;51710;38.732;-121.358;2022-09-23T04:35:35;3.33;;;1.10;;
64966;SDS011;51710;38.732;-121.358;2022-09-23T04:38:09;1.60;;;0.82;;
64966;SDS011;51710;38.732;-121.358;2022-09-23T04:40:36;1.10;;;0.90;;
64966;SDS011;51710;38.732;-121.358;2022-09-23T04:43:03;1.35;;;0.90;;
64966;SDS011;51710;38.732;-121.358;2022-09-23T04:45:30;1.60;;;1.00;;
64966;SDS011;51710;38.732;-121.358;2022-09-23T04:47:56;1.67;;;0.80;;
64966;SDS011;51710;38.732;-121.358;2022-09-23T04:50:25;3.15;;;1.00;;
64966;SDS011;51710;38.732;-121.358;2022-09-23T04:52:51;1.83;;;0.88;;
64966;SDS011;51710;38.732;-121.358;2022-09-23T04:55:19;2.47;;;1.27;;
64966;SDS011;51710;38.732;-121.358;2022-09-23T04:57:47;3.72;;;1.10;;
64966;SDS011;51710;38.732;-121.358;2022-09-23T05:00:13;3.80;;;1.25;;
64966;SDS011;51710;38.732;-121.358;2022-09-23T05:02:43;2.72;;;1.40;;
64966;SDS011;51710;38.732;-121.358;2022-09-23T05:05:12;1.50;;;0.85;;
64966;SDS011;51710;38.732;-121.358;2022-09-23T05:07:39;4.22;;;1.25;;
64966;SDS011;51710;38.732;-121.358;2022-09-23T05:10:07;3.70;;;1.20;;
64966;SDS011;51710;38.732;-121.358;2022-09-23T05:12:34;1.40;;;0.90;;
64966;SDS011;51710;38.732;-121.358;2022-09-23T05:15:00;1.00;;;0.80;;
64966;SDS011;51710;38.732;-121.358;2022-09-23T05:17:26;6.03;;;0.98;;
64966;SDS011;51710;38.732;-121.358;2022-09-23T05:19:55;2.30;;;0.88;;
64966;SDS011;51710;38.732;-121.358;2022-09-23T05:22:23;1.73;;;1.08;;
64966;SDS011;51710;38.732;-121.358;2022-09-23T05:24:53;1.83;;;1.15;;
64966;SDS011;51710;38.732;-121.358;2022-09-23T05:27:19;1.95;;;1.05;;
64966;SDS011;51710;38.732;-121.358;2022-09-23T05:29:46;1.55;;;0.90;;
64966;SDS011;51710;38.732;-121.358;2022-09-23T05:32:13;3.50;;;1.30;;
64966;SDS011;51710;38.732;-121.358;2022-09-23T05:34:40;1.52;;;0.80;;
64966;SDS011;51710;38.732;-121.358;2022-09-23T05:37:06;4.07;;;1.25;;
64966;SDS011;51710;38.732;-121.358;2022-09-23T05:39:33;1.30;;;0.70;;
64966;SDS011;51710;38.732;-121.358;2022-09-23T05:41:59;4.15;;;0.90;;
64966;SDS011;51710;38.732;-121.358;2022-09-23T05:44:26;2.75;;;0.90;;
64966;SDS011;51710;38.732;-121.358;2022-09-23T05:46:52;1.30;;;0.82;;
64966;SDS011;51710;38.732;-121.358;2022-09-23T05:49:19;1.17;;;0.75;;
64966;SDS011;51710;38.732;-121.358;2022-09-23T05:51:45;1.90;;;1.13;;
64966;SDS011;51710;38.732;-121.358;2022-09-23T05:54:11;1.75;;;1.02;;
64966;SDS011;51710;38.732;-121.358;2022-09-23T05:56:38;1.58;;;0.88;;
64966;SDS011;51710;38.732;-121.358;2022-09-23T05:59:05;2.65;;;0.68;;
64966;SDS011;51710;38.732;-121.358;2022-09-23T06:01:32;1.77;;;0.90;;
64966;SDS011;51710;38.732;-121.358;2022-09-23T06:04:01;3.00;;;1.02;;
64966;SDS011;51710;38.732;-121.358;2022-09-23T06:06:30;2.03;;;1.08;;
64966;SDS011;51710;38.732;-121.358;2022-09-23T06:08:59;0.95;;;0.82;;
64966;SDS011;51710;38.732;-121.358;2022-09-23T06:11:28;3.40;;;1.10;;
64966;SDS011;51710;38.732;-121.358;2022-09-23T06:13:56;2.50;;;1.10;;
64966;SDS011;51710;38.732;-121.358;2022-09-23T06:16:27;3.08;;;1.00;;
64966;SDS011;51710;38.732;-121.358;2022-09-23T06:18:55;1.80;;;0.80;;
64966;SDS011;51710;38.732;-121.358;2022-09-23T06:21:24;1.63;;;0.90;;
64966;SDS011;51710;38.732;-121.358;2022-09-23T06:23:50;1.67;;;0.90;;
64966;SDS011;51710;38.732;-121.358;2022-09-23T06:26:17;1.58;;;0.80;;
64966;SDS011;51710;38.732;-121.358;2022-09-23T06:28:43;2.55;;;1.00;;
64966;SDS011;51710;38.732;-121.358;2022-09-23T06:31:11;2.08;;;1.05;;
64966;SDS011;51710;38.732;-121.358;2022-09-23T06:33:40;3.90;;;1.38;;
64966;SDS011;51710;38.732;-121.358;2022-09-23T06:36:07;2.35;;;1.20;;
64966;SDS011;51710;38.732;-121.358;2022-09-23T06:38:37;2.25;;;1.10;;
64966;SDS011;51710;38.732;-121.358;2022-09-23T06:41:04;3.35;;;1.10;;
64966;SDS011;51710;38.732;-121.358;2022-09-23T06:43:31;2.28;;;1.33;;
64966;SDS011;51710;38.732;-121.358;2022-09-23T06:45:59;2.30;;;1.00;;
64966;SDS011;51710;38.732;-121.358;2022-09-23T06:48:26;2.70;;;1.27;;
64966;SDS011;51710;38.732;-121.358;2022-09-23T06:50:57;1.83;;;1.00;;
64966;SDS011;51710;38.732;-121.358;2022-09-23T06:53:26;3.78;;;1.73;;
64966;SDS011;51710;38.732;-121.358;2022-09-23T06:55:57;6.47;;;1.13;;
64966;SDS011;51710;38.732;-121.358;2022-09-23T06:58:29;1.95;;;1.10;;
64966;SDS011;51710;38.732;-121.358;2022-09-23T07:01:05;2.58;;;1.25;;
64966;SDS011;51710;38.732;-121.358;2022-09-23T07:03:34;1.75;;;0.90;;
64966;SDS011;51710;38.732;-121.358;2022-09-23T07:06:01;2.78;;;1.17;;
64966;SDS011;51710;38.732;-121.358;2022-09-23T07:08:28;2.08;;;1.10;;
64966;SDS011;51710;38.732;-121.358;2022-09-23T07:10:59;2.95;;;1.23;;
64966;SDS011;51710;38.732;-121.358;2022-09-23T07:13:27;1.60;;;0.93;;
64966;SDS011;51710;38.732;-121.358;2022-09-23T07:15:55;2.08;;;1.30;;
64966;SDS011;51710;38.732;-121.358;2022-09-23T07:18:29;2.95;;;1.17;;
64966;SDS011;51710;38.732;-121.358;2022-09-23T07:21:08;2.72;;;1.30;;
64966;SDS011;51710;38.732;-121.358;2022-09-23T07:23:48;4.72;;;1.92;;
64966;SDS011;51710;38.732;-121.358;2022-09-23T07:26:16;2.25;;;1.23;;
64966;SDS011;51710;38.732;-121.358;2022-09-23T07:28:44;2.58;;;1.20;;
64966;SDS011;51710;38.732;-121.358;2022-09-23T07:31:14;3.03;;;1.13;;
64966;SDS011;51710;38.732;-121.358;2022-09-23T07:33:42;2.00;;;1.33;;
64966;SDS011;51710;38.732;-121.358;2022-09-23T07:36:10;2.08;;;1.00;;
64966;SDS011;51710;38.732;-121.358;2022-09-23T07:38:38;4.90;;;1.35;;
64966;SDS011;51710;38.732;-121.358;2022-09-23T07:41:06;2.58;;;1.40;;
64966;SDS011;51710;38.732;-121.358;2022-09-23T07:43:35;4.50;;;1.45;;
64966;SDS011;51710;38.732;-121.358;2022-09-23T07:46:03;3.30;;;1.48;;
64966;SDS011;51710;38.732;-121.358;2022-09-23T07:48:32;3.10;;;1.40;;
64966;SDS011;51710;38.732;-121.358;2022-09-23T07:51:05;3.95;;;1.38;;
64966;SDS011;51710;38.732;-121.358;2022-09-23T07:53:35;6.15;;;1.30;;
64966;SDS011;51710;38.732;-121.358;2022-09-23T07:56:02;2.30;;;1.33;;
64966;SDS011;51710;38.732;-121.358;2022-09-23T07:58:32;3.85;;;1.30;;
64966;SDS011;51710;38.732;-121.358;2022-09-23T08:01:06;3.40;;;1.40;;
64966;SDS011;51710;38.732;-121.358;2022-09-23T08:03:34;2.65;;;1.50;;
64966;SDS011;51710;38.732;-121.358;2022-09-23T08:06:11;4.30;;;1.60;;
64966;SDS011;51710;38.732;-121.358;2022-09-23T08:08:39;2.00;;;1.20;;
64966;SDS011;51710;38.732;-121.358;2022-09-23T08:11:08;3.28;;;1.27;;
64966;SDS011;51710;38.732;-121.358;2022-09-23T08:13:37;4.50;;;1.52;;
64966;SDS011;51710;38.732;-121.358;2022-09-23T08:16:03;2.83;;;1.40;;
64966;SDS011;51710;38.732;-121.358;2022-09-23T08:18:31;2.88;;;1.52;;
64966;SDS011;51710;38.732;-121.358;2022-09-23T08:20:58;3.97;;;1.40;;
64966;SDS011;51710;38.732;-121.358;2022-09-23T08:23:24;4.13;;;1.48;;
64966;SDS011;51710;38.732;-121.358;2022-09-23T08:25:55;3.20;;;1.65;;
64966;SDS011;51710;38.732;-121.358;2022-09-23T08:28:24;4.55;;;1.58;;
64966;SDS011;51710;38.732;-121.358;2022-09-23T08:30:51;4.25;;;1.60;;
64966;SDS011;51710;38.732;-121.358;2022-09-23T08:33:17;4.97;;;1.63;;
64966;SDS011;51710;38.732;-121.358;2022-09-23T08:35:43;3.88;;;1.42;;
64966;SDS011;51710;38.732;-121.358;2022-09-23T08:38:10;2.95;;;1.42;;
64966;SDS011;51710;38.732;-121.358;2022-09-23T08:40:37;4.28;;;1.48;;
64966;SDS011;51710;38.732;-121.358;2022-09-23T08:43:07;3.20;;;1.25;;
64966;SDS011;51710;38.732;-121.358;2022-09-23T08:45:41;3.25;;;1.55;;
64966;SDS011;51710;38.732;-121.358;2022-09-23T08:48:15;3.20;;;1.60;;
64966;SDS011;51710;38.732;-121.358;2022-09-23T08:50:49;3.17;;;1.27;;
64966;SDS011;51710;38.732;-121.358;2022-09-23T08:53:26;4.28;;;1.50;;
64966;SDS011;51710;38.732;-121.358;2022-09-23T08:56:02;2.35;;;1.48;;
64966;SDS011;51710;38.732;-121.358;2022-09-23T09:04:17;2.33;;;1.00;;
64966;SDS011;51710;38.732;-121.358;2022-09-23T09:09:39;3.25;;;1.55;;
64966;SDS011;51710;38.732;-121.358;2022-09-23T09:12:10;1.27;;;0.90;;
64966;SDS011;51710;38.732;-121.358;2022-09-23T09:14:56;2.30;;;0.93;;
64966;SDS011;51710;38.732;-121.358;2022-09-23T09:17:40;1.75;;;0.88;;
64966;SDS011;51710;38.732;-121.358;2022-09-23T09:20:40;1.67;;;1.10;;
64966;SDS011;51710;38.732;-121.358;2022-09-23T09:25:53;3.33;;;0.90;;
64966;SDS011;51710;38.732;-121.358;2022-09-23T09:39:04;2.40;;;1.05;;
64966;SDS011;51710;38.732;-121.358;2022-09-23T09:41:33;2.80;;;1.20;;
64966;SDS011;51710;38.732;-121.358;2022-09-23T09:44:00;3.05;;;1.35;;
64966;SDS011;51710;38.732;-121.358;2022-09-23T09:52:21;5.65;;;1.27;;
64966;SDS011;51710;38.732;-121.358;2022-09-23T09:54:50;3.28;;;1.10;;
64966;SDS011;51710;38.732;-121.358;2022-09-23T09:57:36;1.85;;;0.98;;
64966;SDS011;51710;38.732;-121.358;2022-09-23T10:02:52;1.98;;;1.08;;
64966;SDS011;51710;38.732;-121.358;2022-09-23T10:05:26;1.73;;;1.02;;
64966;SDS011;51710;38.732;-121.358;2022-09-23T10:10:51;1.60;;;0.88;;
64966;SDS011;51710;38.732;-121.358;2022-09-23T10:13:24;2.90;;;1.20;;
64966;SDS011;51710;38.732;-121.358;2022-09-23T10:15:54;1.77;;;0.80;;
64966;SDS011;51710;38.732;-121.358;2022-09-23T10:20:51;2.15;;;0.70;;
64966;SDS011;51710;38.732;-121.358;2022-09-23T10:23:25;2.50;;;1.20;;
64966;SDS011;51710;38.732;-121.358;2022-09-23T10:25:56;2.55;;;1.00;;
64966;SDS011;51710;38.732;-121.358;2022-09-23T10:28:35;2.35;;;0.80;;
64966;SDS011;51710;38.732;-121.358;2022-09-23T10:31:06;2.97;;;0.90;;
64966;SDS011;51710;38.732;-121.358;2022-09-23T10:33:48;1.60;;;1.05;;
64966;SDS011;51710;38.732;-121.358;2022-09-23T10:36:16;1.40;;;0.80;;
64966;SDS011;51710;38.732;-121.358;2022-09-23T10:38:43;1.88;;;0.88;;
64966;SDS011;51710;38.732;-121.358;2022-09-23T10:41:17;2.28;;;1.05;;
64966;SDS011;51710;38.732;-121.358;2022-09-23T10:45:33;1.27;;;0.75;;
64966;SDS011;51710;38.732;-121.358;2022-09-23T10:50:29;2.45;;;0.82;;
64966;SDS011;51710;38.732;-121.358;2022-09-23T11:04:04;1.00;;;0.65;;
64966;SDS011;51710;38.732;-121.358;2022-09-23T11:09:28;2.10;;;1.10;;
64966;SDS011;51710;38.732;-121.358;2022-09-23T11:12:06;1.08;;;0.80;;
64966;SDS011;51710;38.732;-121.358;2022-09-23T11:20:37;2.50;;;0.82;;
64966;SDS011;51710;38.732;-121.358;2022-09-23T11:31:20;2.97;;;0.70;;
64966;SDS011;51710;38.732;-121.358;2022-09-23T11:36:25;4.13;;;0.73;;
64966;SDS011;51710;38.732;-121.358;2022-09-23T11:39:16;0.75;;;0.63;;
64966;SDS011;51710;38.732;-121.358;2022-09-23T11:41:48;0.68;;;0.60;;
64966;SDS011;51710;38.732;-121.358;2022-09-23T11:44:22;8.32;;;1.50;;
64966;SDS011;51710;38.732;-121.358;2022-09-23T11:47:02;1.38;;;0.73;;
64966;SDS011;51710;38.732;-121.358;2022-09-23T11:49:36;1.45;;;0.73;;
64966;SDS011;51710;38.732;-121.358;2022-09-23T12:00:36;2.25;;;0.80;;
64966;SDS011;51710;38.732;-121.358;2022-09-23T12:03:13;1.70;;;0.90;;
64966;SDS011;51710;38.732;-121.358;2022-09-23T12:05:51;2.00;;;0.75;;
64966;SDS011;51710;38.732;-121.358;2022-09-23T12:08:29;1.25;;;0.75;;
64966;SDS011;51710;38.732;-121.358;2022-09-23T12:14:06;1.13;;;0.70;;
64966;SDS011;51710;38.732;-121.358;2022-09-23T12:16:54;1.05;;;0.70;;
64966;SDS011;51710;38.732;-121.358;2022-09-23T12:27:51;1.45;;;0.75;;
64966;SDS011;51710;38.732;-121.358;2022-09-23T12:30:21;1.33;;;0.80;;
64966;SDS011;51710;38.732;-121.358;2022-09-23T12:32:51;1.40;;;0.80;;
64966;SDS011;51710;38.732;-121.358;2022-09-23T12:35:19;2.65;;;0.85;;
64966;SDS011;51710;38.732;-121.358;2022-09-23T12:37:48;2.65;;;0.80;;
64966;SDS011;51710;38.732;-121.358;2022-09-23T12:42:47;0.85;;;0.60;;
64966;SDS011;51710;38.732;-121.358;2022-09-23T12:45:16;3.20;;;0.95;;
64966;SDS011;51710;38.732;-121.358;2022-09-23T12:47:43;3.38;;;0.82;;
64966;SDS011;51710;38.732;-121.358;2022-09-23T12:56:00;1.40;;;0.80;;
64966;SDS011;51710;38.732;-121.358;2022-09-23T13:01:15;2.25;;;0.77;;
64966;SDS011;51710;38.732;-121.358;2022-09-23T13:03:45;1.23;;;0.80;;
64966;SDS011;51710;38.732;-121.358;2022-09-23T13:06:41;1.25;;;0.80;;
64966;SDS011;51710;38.732;-121.358;2022-09-23T13:09:30;1.20;;;0.73;;
64966;SDS011;51710;38.732;-121.358;2022-09-23T13:14:32;1.13;;;0.60;;
64966;SDS011;51710;38.732;-121.358;2022-09-23T13:17:00;2.75;;;1.00;;
64966;SDS011;51710;38.732;-121.358;2022-09-23T13:29:59;0.90;;;0.73;;
64966;SDS011;51710;38.732;-121.358;2022-09-23T13:32:33;3.45;;;1.00;;
64966;SDS011;51710;38.732;-121.358;2022-09-23T13:35:13;1.98;;;0.80;;
64966;SDS011;51710;38.732;-121.358;2022-09-23T13:37:51;1.25;;;0.77;;
64966;SDS011;51710;38.732;-121.358;2022-09-23T13:40:19;2.97;;;1.15;;
64966;SDS011;51710;38.732;-121.358;2022-09-23T13:42:50;1.63;;;0.70;;
64966;SDS011;51710;38.732;-121.358;2022-09-23T13:45:26;4.55;;;0.90;;
64966;SDS011;51710;38.732;-121.358;2022-09-23T13:47:57;1.05;;;0.70;;
64966;SDS011;51710;38.732;-121.358;2022-09-23T13:50:37;2.95;;;1.00;;
64966;SDS011;51710;38.732;-121.358;2022-09-23T13:53:08;1.40;;;0.80;;
64966;SDS011;51710;38.732;-121.358;2022-09-23T13:55:37;1.95;;;0.82;;
64966;SDS011;51710;38.732;-121.358;2022-09-23T13:58:18;1.27;;;0.85;;
64966;SDS011;51710;38.732;-121.358;2022-09-23T14:00:48;2.08;;;0.82;;
64966;SDS011;51710;38.732;-121.358;2022-09-23T14:03:33;3.75;;;1.00;;
64966;SDS011;51710;38.732;-121.358;2022-09-23T14:06:06;2.92;;;0.95;;
64966;SDS011;51710;38.732;-121.358;2022-09-23T14:08:44;1.73;;;0.90;;
64966;SDS011;51710;38.732;-121.358;2022-09-23T14:11:19;4.47;;;1.10;;
64966;SDS011;51710;38.732;-121.358;2022-09-23T14:13:53;1.92;;;0.80;;
64966;SDS011;51710;38.732;-121.358;2022-09-23T14:16:22;1.08;;;0.68;;
64966;SDS011;51710;38.732;-121.358;2022-09-23T14:18:54;2.75;;;0.80;;
64966;SDS011;51710;38.732;-121.358;2022-09-23T14:26:57;2.42;;;1.10;;
64966;SDS011;51710;38.732;-121.358;2022-09-23T14:29:27;2.67;;;0.90;;
64966;SDS011;51710;38.732;-121.358;2022-09-23T14:32:03;1.38;;;0.70;;
64966;SDS011;51710;38.732;-121.358;2022-09-23T14:34:38;2.83;;;1.00;;
64966;SDS011;51710;38.732;-121.358;2022-09-23T14:37:12;1.80;;;0.80;;
64966;SDS011;51710;38.732;-121.358;2022-09-23T14:40:18;1.63;;;1.02;;
64966;SDS011;51710;38.732;-121.358;2022-09-23T14:42:55;3.15;;;0.80;;
64966;SDS011;51710;38.732;-121.358;2022-09-23T14:45:40;3.22;;;1.08;;
64966;SDS011;51710;38.732;-121.358;2022-09-23T14:48:24;2.33;;;0.82;;
64966;SDS011;51710;38.732;-121.358;2022-09-23T14:50:58;5.13;;;1.02;;
64966;SDS011;51710;38.732;-121.358;2022-09-23T14:53:38;1.65;;;0.90;;
64966;SDS011;51710;38.732;-121.358;2022-09-23T15:01:32;2.15;;;0.98;;
64966;SDS011;51710;38.732;-121.358;2022-09-23T15:04:11;1.80;;;0.90;;
64966;SDS011;51710;38.732;-121.358;2022-09-23T15:06:48;3.15;;;1.10;;
64966;SDS011;51710;38.732;-121.358;2022-09-23T15:09:38;2.80;;;1.10;;
64966;SDS011;51710;38.732;-121.358;2022-09-23T15:12:16;1.75;;;1.27;;
64966;SDS011;51710;38.732;-121.358;2022-09-23T15:14:50;2.08;;;0.90;;
64966;SDS011;51710;38.732;-121.358;2022-09-23T15:17:32;3.90;;;1.10;;
64966;SDS011;51710;38.732;-121.358;2022-09-23T15:20:03;1.95;;;1.02;;
64966;SDS011;51710;38.732;-121.358;2022-09-23T15:22:54;1.55;;;1.13;;
64966;SDS011;51710;38.732;-121.358;2022-09-23T15:28:01;2.88;;;1.40;;
64966;SDS011;51710;38.732;-121.358;2022-09-23T15:30:34;2.92;;;1.20;;
64966;SDS011;51710;38.732;-121.358;2022-09-23T15:33:01;5.10;;;1.67;;
64966;SDS011;51710;38.732;-121.358;2022-09-23T15:35:27;4.88;;;1.65;;
64966;SDS011;51710;38.732;-121.358;2022-09-23T15:37:56;5.43;;;1.75;;
64966;SDS011;51710;38.732;-121.358;2022-09-23T15:40:31;4.13;;;1.45;;
64966;SDS011;51710;38.732;-121.358;2022-09-23T15:42:59;3.53;;;1.60;;
64966;SDS011;51710;38.732;-121.358;2022-09-23T15:48:17;5.03;;;1.65;;
64966;SDS011;51710;38.732;-121.358;2022-09-23T15:50:50;6.15;;;1.65;;
64966;SDS011;51710;38.732;-121.358;2022-09-23T15:53:24;3.28;;;1.40;;
64966;SDS011;51710;38.732;-121.358;2022-09-23T15:55:52;10.23;;;2.05;;
64966;SDS011;51710;38.732;-121.358;2022-09-23T15:58:19;4.65;;;2.13;;
64966;SDS011;51710;38.732;-121.358;2022-09-23T16:00:50;6.90;;;1.60;;
64966;SDS011;51710;38.732;-121.358;2022-09-23T16:03:18;6.60;;;1.80;;
64966;SDS011;51710;38.732;-121.358;2022-09-23T16:05:46;4.95;;;1.60;;
64966;SDS011;51710;38.732;-121.358;2022-09-23T16:08:14;4.07;;;1.50;;
64966;SDS011;51710;38.732;-121.358;2022-09-23T16:10:44;8.20;;;1.80;;
64966;SDS011;51710;38.732;-121.358;2022-09-23T16:13:13;4.20;;;1.70;;
64966;SDS011;51710;38.732;-121.358;2022-09-23T16:15:40;5.45;;;1.85;;
64966;SDS011;51710;38.732;-121.358;2022-09-23T16:18:08;5.93;;;1.83;;
64966;SDS011;51710;38.732;-121.358;2022-09-23T16:20:36;2.70;;;1.42;;
64966;SDS011;51710;38.732;-121.358;2022-09-23T16:23:25;2.37;;;1.23;;
64966;SDS011;51710;38.732;-121.358;2022-09-23T16:28:40;4.47;;;1.40;;
64966;SDS011;51710;38.732;-121.358;2022-09-23T16:31:06;2.60;;;1.20;;
64966;SDS011;51710;38.732;-121.358;2022-09-23T16:33:33;5.93;;;1.85;;
64966;SDS011;51710;38.732;-121.358;2022-09-23T16:36:00;5.07;;;1.70;;
64966;SDS011;51710;38.732;-121.358;2022-09-23T16:38:27;4.45;;;1.30;;
64966;SDS011;51710;38.732;-121.358;2022-09-23T16:40:54;2.42;;;1.48;;
64966;SDS011;51710;38.732;-121.358;2022-09-23T16:43:25;4.70;;;1.30;;
64966;SDS011;51710;38.732;-121.358;2022-09-23T16:45:57;3.15;;;1.20;;
64966;SDS011;51710;38.732;-121.358;2022-09-23T16:48:23;4.30;;;1.50;;
64966;SDS011;51710;38.732;-121.358;2022-09-23T16:50:50;3.00;;;1.15;;
64966;SDS011;51710;38.732;-121.358;2022-09-23T16:53:18;3.00;;;1.20;;
64966;SDS011;51710;38.732;-121.358;2022-09-23T16:55:45;3.15;;;1.38;;
64966;SDS011;51710;38.732;-121.358;2022-09-23T16:58:11;2.00;;;1.15;;
64966;SDS011;51710;38.732;-121.358;2022-09-23T17:00:37;3.50;;;1.50;;
64966;SDS011;51710;38.732;-121.358;2022-09-23T17:06:09;2.60;;;1.20;;
64966;SDS011;51710;38.732;-121.358;2022-09-23T17:08:42;2.97;;;1.10;;
64966;SDS011;51710;38.732;-121.358;2022-09-23T17:11:10;1.92;;;1.15;;
64966;SDS011;51710;38.732;-121.358;2022-09-23T17:13:38;2.65;;;1.30;;
64966;SDS011;51710;38.732;-121.358;2022-09-23T17:16:07;4.13;;;1.10;;
64966;SDS011;51710;38.732;-121.358;2022-09-23T17:18:33;3.25;;;1.50;;
64966;SDS011;51710;38.732;-121.358;2022-09-23T17:21:01;1.92;;;1.38;;
64966;SDS011;51710;38.732;-121.358;2022-09-23T17:23:30;3.53;;;1.48;;
64966;SDS011;51710;38.732;-121.358;2022-09-23T17:25:58;5.38;;;1.38;;
64966;SDS011;51710;38.732;-121.358;2022-09-23T17:28:24;2.75;;;1.38;;
64966;SDS011;51710;38.732;-121.358;2022-09-23T17:30:58;4.00;;;1.58;;
64966;SDS011;51710;38.732;-121.358;2022-09-23T17:33:26;5.10;;;1.83;;
64966;SDS011;51710;38.732;-121.358;2022-09-23T17:35:53;3.40;;;1.60;;
64966;SDS011;51710;38.732;-121.358;2022-09-23T17:38:21;6.20;;;1.73;;
64966;SDS011;51710;38.732;-121.358;2022-09-23T17:40:51;3.72;;;1.35;;
64966;SDS011;51710;38.732;-121.358;2022-09-23T17:43:19;2.25;;;1.38;;